James Turecamo — WDC7565 — position and weather

sailwx.info

Track history (hours):
 
Tides and Currents Weather Stations Pressure Air Temp Water Temp Dewpoint Dewpoint Depression Visibility Wind Speed Wind Dir Waves Ship Positions

James Turecamo

Owner: Moran Towing Corporation, New Canaan, CT. More information available from US FCC via Universal Licensing System and Coast Guard Vessel Documentation Center.

Last reported at 2017-Jun-02 18:48 UTC. Time now 2017-Jun-23 22:12 UTC.
Position N 40°57' W 073°54'.
Warning: this ship's position is 21 days out of date.

Length 30 m; draft 4.2 m.

Type: Tug. MMSI: 367073380.

Date/timePositionNaut miles runAvg speedWind from/ knotsBaromVisibWave heightAir tempDewpointWater temp
2017-Jun-02 18:48N 40°57' W 073°54'411.6
2017-Jun-02 18:29N 40°54' W 073°55'611.6
2017-Jun-02 18:01N 40°49' W 073°58'510.8
2017-Jun-02 17:31N 40°44' W 074°01'5 9.7
2017-Jun-02 17:01N 40°40' W 074°04'3 6.1
2017-Jun-02 16:30N 40°38' W 074°08'0 0.0
2017-Jun-02 15:55N 40°38' W 074°08'3 7.5
2017-Jun-02 15:31N 40°40' W 074°04'0 1.0
2017-Jun-02 15:01N 40°39' W 074°04'3 5.5
2017-Jun-02 14:31N 40°38' W 074°08'0 0.0
2017-Jun-02 13:30N 40°38' W 074°08'0 0.0
2017-Jun-02 13:01N 40°38' W 074°08'0 0.1
2017-Jun-02 12:30N 40°38' W 074°08'0 0.0
2017-Jun-02 12:00N 40°38' W 074°08'0 0.0
2017-Jun-02 11:30N 40°38' W 074°08'0 0.0
2017-Jun-02 11:00N 40°38' W 074°08'0 0.0
2017-Jun-02 10:30N 40°38' W 074°08'0 0.0
2017-Jun-02 10:00N 40°38' W 074°08'0 0.0
2017-Jun-02 09:30N 40°38' W 074°08'0 0.0
2017-Jun-02 09:00N 40°38' W 074°08'0 0.0
2017-Jun-02 08:28N 40°38' W 074°08'0 0.0
2017-Jun-02 07:24N 40°38' W 074°08'3 7.9
2017-Jun-02 07:00N 40°38' W 074°12'4 5.9
2017-Jun-02 06:23N 40°34' W 074°13'1 0.5
2017-Jun-02 05:09N 40°35' W 074°13'0 0.0
2017-Jun-02 04:59N 40°35' W 074°13'4 8.5
2017-Jun-02 04:30N 40°39' W 074°10'2 3.6
2017-Jun-02 03:58N 40°38' W 074°08'0 0.0
2017-Jun-02 03:30N 40°38' W 074°08'0 0.0
2017-Jun-02 03:00N 40°38' W 074°08'0 0.0
2017-Jun-02 02:30N 40°38' W 074°08'0 0.0
2017-Jun-02 02:00N 40°38' W 074°08'0 0.0
2017-Jun-01 23:53N 40°38' W 074°08'0 0.0
2017-Jun-01 23:26N 40°38' W 074°08'0 0.0
2017-Jun-01 22:50N 40°38' W 074°08'0 0.0
2017-Jun-01 22:31N 40°38' W 074°08'0 0.0
2017-Jun-01 21:59N 40°38' W 074°08'0 0.0
2017-Jun-01 21:28N 40°38' W 074°08'0 0.0
2017-Jun-01 20:56N 40°38' W 074°08'0 0.0
2017-Jun-01 20:19N 40°38' W 074°08'0 0.0
2017-Jun-01 19:20N 40°38' W 074°08'0 0.0
2017-Jun-01 18:56N 40°38' W 074°08'0 0.3
2017-Jun-01 18:31N 40°39' W 074°08'4 0.9
2017-Jun-01 14:32N 40°37' W 074°12'4 7.2
2017-Jun-01 14:00N 40°39' W 074°08'0 0.2
2017-Jun-01 13:30N 40°38' W 074°08'0 0.0
2017-Jun-01 12:55N 40°38' W 074°08'0 0.0
2017-Jun-01 12:27N 40°38' W 074°08'0 0.0
2017-Jun-01 11:59N 40°38' W 074°08'0 0.0
2017-Jun-01 11:25N 40°38' W 074°08'4 9.1
2017-Jun-01 11:01N 40°40' W 074°03'1 2.6
2017-Jun-01 10:31N 40°39' W 074°05'2 4.3
2017-Jun-01 09:57N 40°38' W 074°08'0 0.0
2017-Jun-01 09:19N 40°38' W 074°08'0 0.0
2017-Jun-01 09:01N 40°38' W 074°08'0 0.0
2017-Jun-01 08:31N 40°38' W 074°08'0 0.0
2017-Jun-01 07:37N 40°38' W 074°08'0 0.0
2017-Jun-01 07:30N 40°38' W 074°08'0 0.0
2017-Jun-01 07:00N 40°38' W 074°08'0 0.0
2017-Jun-01 06:30N 40°38' W 074°08'0 0.0
2017-Jun-01 06:00N 40°38' W 074°08'0 0.0
2017-Jun-01 05:30N 40°38' W 074°08'0 0.0
2017-Jun-01 04:59N 40°38' W 074°08'0 0.0
2017-Jun-01 04:13N 40°38' W 074°08'0 0.0
2017-Jun-01 03:57N 40°38' W 074°08'1 1.4
2017-Jun-01 03:31N 40°39' W 074°09'3 6.5
2017-Jun-01 03:01N 40°39' W 074°04'2 4.1
2017-Jun-01 02:30N 40°37' W 074°03'0 0.3
2017-Jun-01 02:01N 40°37' W 074°03'3 6.1
2017-Jun-01 01:31N 40°39' W 074°06'4 7.9
2017-Jun-01 01:00N 40°38' W 074°12'2 4.3
2017-Jun-01 00:29N 40°36' W 074°12'1 2.1
2017-Jun-01 00:00N 40°35' W 074°13'3 5.6
2017-May-31 23:31N 40°38' W 074°12'3 6.3
2017-May-31 23:00N 40°38' W 074°08'0 0.0
2017-May-31 22:30N 40°38' W 074°08'2 3.4
2017-May-31 22:00N 40°40' W 074°08'1 2.0
2017-May-31 21:31N 40°41' W 074°08'0 0.7
2017-May-31 20:59N 40°41' W 074°08'3 5.7
2017-May-31 20:31N 40°39' W 074°09'3 6.3
2017-May-31 20:01N 40°39' W 074°05'2 4.0
2017-May-31 19:31N 40°41' W 074°04'0 0.1
2017-May-31 19:01N 40°41' W 074°04'3 5.0
2017-May-31 18:31N 40°39' W 074°06'1 2.9
2017-May-31 18:00N 40°38' W 074°08'2 4.3
2017-May-31 17:30N 40°39' W 074°05'1 1.1
2017-May-31 17:00N 40°39' W 074°04'3 5.3
2017-May-31 16:30N 40°38' W 074°08'0 0.0
2017-May-31 15:35N 40°38' W 074°08'0 0.0
2017-May-31 15:21N 40°38' W 074°08'3 7.6
2017-May-31 15:00N 40°39' W 074°04'2 4.1
2017-May-31 14:30N 40°37' W 074°03'4 3.7
2017-May-31 13:30N 40°38' W 074°08'0 0.0
2017-May-31 13:00N 40°38' W 074°08'0 0.0
2017-May-31 12:30N 40°38' W 074°08'0 0.0
2017-May-31 12:00N 40°38' W 074°08'3 5.6
2017-May-31 11:30N 40°38' W 074°11'1 2.2
2017-May-31 11:01N 40°39' W 074°10'3 6.0
2017-May-31 10:31N 40°39' W 074°06'1 2.4
2017-May-31 10:00N 40°38' W 074°08'0 0.2
2017-May-31 09:31N 40°38' W 074°08'3 6.7
2017-May-31 09:01N 40°37' W 074°04'0 0.7
2017-May-31 08:30N 40°37' W 074°03'1 1.0
2017-May-31 08:00N 40°37' W 074°03'0 0.5
2017-May-31 07:31N 40°36' W 074°03'3 6.5
2017-May-31 07:01N 40°39' W 074°05'2 3.6
2017-May-31 06:30N 40°38' W 074°08'0 0.0
2017-May-31 06:01N 40°38' W 074°08'0 0.0
2017-May-31 05:31N 40°38' W 074°08'0 0.0
2017-May-31 05:01N 40°38' W 074°08'0 0.0
2017-May-31 04:30N 40°38' W 074°08'0 0.0
2017-May-31 04:01N 40°38' W 074°08'1 2.9
2017-May-31 03:30N 40°39' W 074°06'0 0.3
2017-May-31 03:01N 40°39' W 074°06'2 4.4
2017-May-31 02:30N 40°39' W 074°09'2 4.9
2017-May-31 02:01N 40°41' W 074°08'0 0.6
2017-May-31 01:30N 40°42' W 074°08'0 0.3
2017-May-31 01:00N 40°42' W 074°08'0 0.0
2017-May-31 00:31N 40°41' W 074°08'0 0.0
2017-May-31 00:00N 40°42' W 074°08'0 0.2
2017-May-30 23:30N 40°41' W 074°08'3 5.9
2017-May-30 23:00N 40°38' W 074°08'0 0.0
2017-May-30 22:31N 40°38' W 074°08'0 0.0
2017-May-30 22:01N 40°38' W 074°08'0 0.0
2017-May-30 21:30N 40°38' W 074°08'0 0.0
2017-May-30 21:00N 40°38' W 074°08'0 0.0
2017-May-30 20:29N 40°38' W 074°08'2 3.3
2017-May-30 20:00N 40°39' W 074°10'4 3.6
2017-May-30 18:52N 40°35' W 074°13'0 0.4
2017-May-30 18:24N 40°35' W 074°12'1 0.6
2017-May-30 16:13N 40°36' W 074°12'2 9.7
2017-May-30 16:00N 40°38' W 074°12'3 4.2
2017-May-30 15:19N 40°38' W 074°08'0 0.0
2017-May-30 15:00N 40°38' W 074°08'0 0.0
2017-May-30 14:00N 40°38' W 074°08'0 0.0
2017-May-30 13:28N 40°38' W 074°08'0 0.0
2017-May-30 12:59N 40°38' W 074°08'0 0.0
2017-May-30 12:29N 40°38' W 074°08'0 0.0
2017-May-30 12:00N 40°38' W 074°08'0 0.0
2017-May-30 11:28N 40°38' W 074°08'0 0.0
2017-May-30 11:00N 40°38' W 074°08'0 0.0
2017-May-30 10:30N 40°38' W 074°08'0 0.0
2017-May-30 10:00N 40°38' W 074°08'1 2.0
2017-May-30 09:31N 40°39' W 074°07'3 5.9
2017-May-30 09:01N 40°38' W 074°03'4 7.5
2017-May-30 08:30N 40°39' W 074°08'0 0.2
2017-May-30 07:59N 40°38' W 074°08'0 0.0
2017-May-30 07:30N 40°38' W 074°08'0 0.0
2017-May-30 07:00N 40°38' W 074°08'0 0.0
2017-May-30 06:29N 40°38' W 074°08'0 0.0
2017-May-30 06:01N 40°38' W 074°08'0 0.0
2017-May-30 05:30N 40°38' W 074°08'0 0.0
2017-May-30 05:00N 40°38' W 074°08'0 0.0
2017-May-30 04:30N 40°38' W 074°08'0 0.0
2017-May-30 04:01N 40°38' W 074°08'0 0.0
2017-May-30 03:29N 40°38' W 074°08'0 0.0
2017-May-30 03:00N 40°38' W 074°08'0 0.0
2017-May-30 02:29N 40°38' W 074°08'0 0.0
2017-May-30 02:00N 40°38' W 074°08'0 0.0
2017-May-30 01:31N 40°38' W 074°08'0 0.0
2017-May-30 01:00N 40°38' W 074°08'0 0.0
2017-May-30 00:31N 40°38' W 074°08'0 0.0
2017-May-30 00:00N 40°38' W 074°08'0 0.0
2017-May-29 23:29N 40°38' W 074°08'0 0.0
2017-May-29 23:01N 40°38' W 074°08'0 0.0
2017-May-29 22:28N 40°38' W 074°08'0 0.0
2017-May-29 22:01N 40°38' W 074°08'0 0.0
2017-May-29 21:30N 40°38' W 074°08'0 0.0
2017-May-29 21:00N 40°38' W 074°08'0 0.0
2017-May-29 20:30N 40°38' W 074°08'0 0.0
2017-May-29 20:00N 40°38' W 074°08'0 0.0
2017-May-29 19:30N 40°38' W 074°08'0 0.0
2017-May-29 19:00N 40°38' W 074°08'0 0.0
2017-May-29 18:30N 40°38' W 074°08'0 0.0
2017-May-29 18:00N 40°38' W 074°08'0 0.0
2017-May-29 17:28N 40°38' W 074°08'0 0.0
2017-May-29 17:00N 40°38' W 074°08'0 0.0
2017-May-29 16:30N 40°38' W 074°08'0 0.0
2017-May-29 16:00N 40°38' W 074°08'0 0.0
2017-May-29 15:31N 40°38' W 074°08'0 0.0
2017-May-29 15:00N 40°38' W 074°08'0 0.0
2017-May-29 14:00N 40°38' W 074°08'0 0.0
2017-May-29 13:30N 40°38' W 074°08'0 0.0
2017-May-29 13:00N 40°38' W 074°08'0 0.0
2017-May-29 12:30N 40°38' W 074°08'0 0.0
2017-May-29 12:01N 40°38' W 074°08'0 0.0
2017-May-29 11:31N 40°38' W 074°08'0 0.0
2017-May-29 11:01N 40°38' W 074°08'0 0.0
2017-May-29 10:31N 40°38' W 074°08'0 0.0
2017-May-29 10:00N 40°38' W 074°08'0 0.0
2017-May-29 09:31N 40°38' W 074°08'0 0.0
2017-May-29 09:01N 40°38' W 074°08'0 0.0
2017-May-29 08:30N 40°38' W 074°08'0 0.0
2017-May-29 07:57N 40°38' W 074°08'0 0.0
2017-May-29 07:30N 40°38' W 074°08'0 0.0
2017-May-29 07:01N 40°38' W 074°08'0 0.0
2017-May-29 06:31N 40°38' W 074°08'0 0.0
2017-May-29 06:00N 40°38' W 074°08'0 0.0
2017-May-29 05:30N 40°38' W 074°08'0 0.0
2017-May-29 05:00N 40°38' W 074°08'0 0.0
2017-May-29 04:30N 40°38' W 074°08'0 0.0
2017-May-29 03:59N 40°38' W 074°08'0 0.0
2017-May-29 03:30N 40°38' W 074°08'0 0.0
2017-May-29 03:00N 40°38' W 074°08'0 0.0
2017-May-29 00:43N 40°38' W 074°08'0 0.0
2017-May-29 00:26N 40°38' W 074°08'0 0.0
2017-May-28 23:28N 40°38' W 074°08'0 0.0
2017-May-28 22:53N 40°38' W 074°08'0 0.0
2017-May-28 22:30N 40°38' W 074°08'0 0.0
2017-May-28 21:47N 40°38' W 074°08'0 0.0
2017-May-28 21:29N 40°38' W 074°08'0 0.0
2017-May-28 19:50N 40°38' W 074°08'0 0.0
2017-May-28 19:30N 40°38' W 074°08'0 0.0
2017-May-28 18:58N 40°38' W 074°08'0 0.0
2017-May-28 18:30N 40°38' W 074°08'0 0.0
2017-May-28 18:00N 40°38' W 074°08'0 0.0
2017-May-28 17:28N 40°38' W 074°08'0 0.0
2017-May-28 16:59N 40°38' W 074°08'0 0.0
2017-May-28 16:29N 40°38' W 074°08'0 0.0
2017-May-28 15:59N 40°38' W 074°08'0 0.0
2017-May-28 15:30N 40°38' W 074°08'1 1.4
2017-May-28 15:00N 40°39' W 074°07'1 0.7
2017-May-28 14:00N 40°38' W 074°08'0 0.0
2017-May-28 13:30N 40°38' W 074°08'0 0.0
2017-May-28 13:01N 40°38' W 074°08'0 0.0
2017-May-28 12:30N 40°38' W 074°08'4 7.1
2017-May-28 11:59N 40°37' W 074°12'1 0.3
2017-May-28 09:13N 40°36' W 074°12'210.8
2017-May-28 09:00N 40°39' W 074°11'3 5.4
2017-May-28 08:30N 40°38' W 074°08'0 0.0
2017-May-28 08:00N 40°38' W 074°08'0 0.0
2017-May-28 07:31N 40°38' W 074°08'0 0.0
2017-May-28 07:01N 40°38' W 074°08'0 0.0
2017-May-28 06:30N 40°38' W 074°08'0 0.0
2017-May-28 05:57N 40°38' W 074°08'0 0.0
2017-May-28 05:31N 40°38' W 074°08'0 0.0
2017-May-28 05:00N 40°38' W 074°08'0 0.0
2017-May-28 04:30N 40°38' W 074°08'0 0.0
2017-May-28 04:01N 40°38' W 074°08'0 0.0
2017-May-28 03:31N 40°38' W 074°08'0 0.0
2017-May-28 03:00N 40°38' W 074°08'0 0.0
2017-May-28 02:31N 40°38' W 074°08'0 0.0
2017-May-28 02:00N 40°38' W 074°08'0 0.0
2017-May-28 01:30N 40°38' W 074°08'0 0.0
2017-May-28 01:00N 40°38' W 074°08'0 0.0
2017-May-28 00:30N 40°38' W 074°08'0 0.0
2017-May-27 23:59N 40°38' W 074°08'0 0.0
2017-May-27 23:31N 40°38' W 074°08'0 0.0
2017-May-27 23:01N 40°38' W 074°08'0 0.0
2017-May-27 22:31N 40°38' W 074°08'0 0.0
2017-May-27 22:01N 40°38' W 074°08'0 0.0
2017-May-27 21:31N 40°38' W 074°08'0 0.0
2017-May-27 21:01N 40°38' W 074°08'0 0.0
2017-May-27 20:30N 40°38' W 074°08'0 0.0
2017-May-27 20:00N 40°38' W 074°08'0 0.0
2017-May-27 19:30N 40°38' W 074°08'0 0.0
2017-May-27 19:01N 40°38' W 074°08'0 0.0
2017-May-27 18:30N 40°38' W 074°08'0 0.0
2017-May-27 18:01N 40°38' W 074°08'0 0.0
2017-May-27 17:31N 40°38' W 074°08'0 0.0
2017-May-27 17:00N 40°38' W 074°08'0 0.0
2017-May-27 16:31N 40°38' W 074°08'0 0.0
2017-May-27 16:00N 40°38' W 074°08'0 0.0
2017-May-27 15:28N 40°38' W 074°08'0 0.0
2017-May-27 15:00N 40°38' W 074°08'0 0.0
2017-May-27 14:31N 40°38' W 074°08'0 0.0
2017-May-27 13:30N 40°38' W 074°08'0 0.0
2017-May-27 13:00N 40°38' W 074°08'0 0.0
2017-May-27 12:30N 40°38' W 074°08'1 2.7
2017-May-27 12:01N 40°39' W 074°06'0 0.9
2017-May-27 11:31N 40°39' W 074°05'2 4.2
2017-May-27 11:00N 40°39' W 074°08'4 0.7
2017-May-27 05:30N 40°37' W 074°12'4 8.1
2017-May-27 05:00N 40°39' W 074°08'0 0.1
2017-May-27 04:13N 40°38' W 074°08'0 0.0
2017-May-27 04:00N 40°38' W 074°08'0 0.0
2017-May-27 03:13N 40°38' W 074°08'0 0.0
2017-May-27 03:00N 40°38' W 074°08'0 0.0
2017-May-27 02:29N 40°38' W 074°08'0 0.0
2017-May-27 01:53N 40°38' W 074°08'0 0.0
2017-May-27 01:30N 40°38' W 074°08'0 0.0
2017-May-26 22:09N 40°38' W 074°08'0 0.0
2017-May-26 21:09N 40°38' W 074°08'0 0.0
2017-May-26 20:54N 40°38' W 074°08'0 0.0
2017-May-26 19:31N 40°38' W 074°08'0 0.0
2017-May-26 19:07N 40°38' W 074°08'0 0.1
2017-May-26 19:00N 40°38' W 074°08'2 4.6
2017-May-26 18:30N 40°39' W 074°11'2 0.4
2017-May-26 12:04N 40°37' W 074°12'0 7.8
2017-May-26 12:01N 40°37' W 074°12'3 6.5
2017-May-26 11:30N 40°39' W 074°08'1 1.0
2017-May-26 11:01N 40°38' W 074°08'0 0.0
2017-May-26 10:31N 40°38' W 074°08'0 0.0
2017-May-26 10:01N 40°38' W 074°08'0 0.0
2017-May-26 09:31N 40°38' W 074°08'0 0.0
2017-May-26 09:00N 40°38' W 074°08'0 0.0
2017-May-26 08:31N 40°38' W 074°08'0 0.0
2017-May-26 08:00N 40°38' W 074°08'0 0.0
2017-May-26 07:31N 40°38' W 074°08'0 0.0
2017-May-26 07:01N 40°38' W 074°08'0 0.0
2017-May-26 06:31N 40°38' W 074°08'0 0.0
2017-May-26 06:01N 40°38' W 074°08'0 0.0
2017-May-26 05:30N 40°38' W 074°08'0 0.0
2017-May-26 05:00N 40°38' W 074°08'0 0.0
2017-May-26 04:31N 40°38' W 074°08'0 0.0
2017-May-26 04:01N 40°38' W 074°08'0 0.0
2017-May-26 03:30N 40°38' W 074°08'0 0.0
2017-May-26 03:01N 40°38' W 074°08'0 0.0
2017-May-26 02:31N 40°38' W 074°08'0 0.0
2017-May-26 02:01N 40°38' W 074°08'0 0.0
2017-May-26 01:31N 40°38' W 074°08'0 0.0
2017-May-26 01:01N 40°38' W 074°08'0 0.0
2017-May-26 00:31N 40°38' W 074°08'0 0.0
2017-May-26 00:00N 40°38' W 074°08'0 0.0
2017-May-25 23:31N 40°38' W 074°08'0 0.0
2017-May-25 23:01N 40°38' W 074°08'0 0.0
2017-May-25 22:31N 40°38' W 074°08'0 0.0
2017-May-25 22:01N 40°38' W 074°08'0 0.0
2017-May-25 21:31N 40°38' W 074°08'0 0.0
2017-May-25 21:01N 40°38' W 074°08'0 0.0
2017-May-25 20:31N 40°38' W 074°08'0 0.0
2017-May-25 20:01N 40°38' W 074°08'0 0.0
2017-May-25 19:30N 40°38' W 074°08'0 0.0
2017-May-25 19:00N 40°38' W 074°08'0 0.0
2017-May-25 18:30N 40°38' W 074°08'0 0.0
2017-May-25 18:00N 40°38' W 074°08'0 0.0
2017-May-25 17:30N 40°38' W 074°08'0 0.0
2017-May-25 17:00N 40°38' W 074°08'0 0.0
2017-May-25 16:30N 40°38' W 074°08'0 0.0
2017-May-25 15:51N 40°38' W 074°08'0 0.0
2017-May-25 15:19N 40°38' W 074°08'0 0.0
2017-May-25 15:00N 40°38' W 074°08'0 0.0
2017-May-25 13:46N 40°38' W 074°08'0 1.7
2017-May-25 13:30N 40°39' W 074°07'0 0.1
2017-May-25 13:01N 40°39' W 074°07'0 0.5
2017-May-25 12:31N 40°39' W 074°07'0 0.4
2017-May-25 12:01N 40°39' W 074°07'0 0.7
2017-May-25 11:30N 40°39' W 074°06'1 2.5
2017-May-25 11:00N 40°38' W 074°08'0 0.0
2017-May-25 10:30N 40°38' W 074°08'0 0.0
2017-May-25 09:53N 40°38' W 074°08'0 0.0
2017-May-25 09:29N 40°38' W 074°08'0 0.0
2017-May-25 09:00N 40°38' W 074°08'0 0.0
2017-May-25 08:30N 40°38' W 074°08'0 0.0
2017-May-25 08:00N 40°38' W 074°08'0 0.0
2017-May-25 07:16N 40°38' W 074°08'0 0.0
2017-May-25 06:56N 40°38' W 074°08'0 0.0
2017-May-25 05:55N 40°38' W 074°08'0 0.1
2017-May-25 05:30N 40°38' W 074°08'4 8.9
2017-May-25 05:01N 40°40' W 074°03'2 3.5
2017-May-25 04:31N 40°41' W 074°01'0 0.3
2017-May-25 04:01N 40°41' W 074°01'0 0.0
2017-May-25 03:31N 40°41' W 074°01'0 0.0
2017-May-25 03:01N 40°41' W 074°01'5 9.2
2017-May-25 02:31N 40°39' W 074°06'1 2.4
2017-May-25 01:56N 40°38' W 074°08'0 0.0
2017-May-25 01:29N 40°38' W 074°08'0 0.0
2017-May-25 00:59N 40°38' W 074°08'0 0.0
2017-May-25 00:26N 40°38' W 074°08'0 0.0
2017-May-24 23:14N 40°38' W 074°08'0 0.0
2017-May-24 22:50N 40°38' W 074°08'0 0.0
2017-May-24 22:26N 40°38' W 074°08'0 0.0
2017-May-24 21:32N 40°38' W 074°08'0 0.0
2017-May-24 21:29N 40°38' W 074°08'0 0.0
2017-May-24 20:53N 40°38' W 074°08'0 0.0
2017-May-24 20:29N 40°38' W 074°08'0 0.0
2017-May-24 19:53N 40°38' W 074°08'0 0.0
2017-May-24 18:59N 40°38' W 074°08'0 0.0
2017-May-24 18:23N 40°38' W 074°08'0 0.0
2017-May-24 17:53N 40°38' W 074°08'0 0.0
2017-May-24 17:29N 40°38' W 074°08'0 0.0
2017-May-24 16:59N 40°38' W 074°08'0 0.0
2017-May-24 16:29N 40°38' W 074°08'0 0.0
2017-May-24 15:59N 40°38' W 074°08'0 0.0
2017-May-24 10:53N 40°38' W 074°08'0 0.0
2017-May-24 10:29N 40°38' W 074°08'0 0.0
2017-May-24 09:46N 40°38' W 074°08'310.1
2017-May-24 09:30N 40°39' W 074°11'0 0.1
2017-May-24 08:48N 40°39' W 074°11'2 6.1
2017-May-24 08:30N 40°39' W 074°09'1 0.6
2017-May-24 07:20N 40°38' W 074°08'0 0.0
2017-May-24 06:44N 40°38' W 074°08'0 0.0
2017-May-24 06:26N 40°38' W 074°08'0 0.0
2017-May-24 05:35N 40°38' W 074°08'0 0.0
2017-May-24 05:29N 40°38' W 074°08'0 0.0
2017-May-24 01:02N 40°38' W 074°08'0 0.0
2017-May-24 00:50N 40°38' W 074°08'1 2.1
2017-May-24 00:31N 40°39' W 074°07'1 1.3
2017-May-24 00:00N 40°38' W 074°08'0 0.0
2017-May-23 23:30N 40°38' W 074°08'0 0.0
2017-May-23 23:00N 40°38' W 074°08'0 0.0
2017-May-23 22:30N 40°38' W 074°08'0 0.0
2017-May-23 22:00N 40°38' W 074°08'0 0.0
2017-May-23 21:27N 40°38' W 074°08'0 0.0
2017-May-23 20:57N 40°38' W 074°08'0 0.0
2017-May-23 20:30N 40°38' W 074°08'0 0.0
2017-May-23 20:00N 40°38' W 074°08'0 0.0
2017-May-23 19:27N 40°38' W 074°08'0 0.0
2017-May-23 18:57N 40°38' W 074°08'  
Track history (hours):
 
Tides and Currents Weather Stations Pressure Air Temp Water Temp Dewpoint Dewpoint Depression Visibility Wind Speed Wind Dir Waves Ship Positions

James Turecamo

Owner: Moran Towing Corporation, New Canaan, CT. More information available from US FCC via Universal Licensing System and Coast Guard Vessel Documentation Center.

Last reported at 2017-Jun-02 18:48 UTC. Time now 2017-Jun-23 22:12 UTC.
Position N 40°57' W 073°54'.
Warning: this ship's position is 21 days out of date.

Length 30 m; draft 4.2 m.

Type: Tug. MMSI: 367073380.

Date/timePositionNaut miles runAvg speedWind from/ knotsBaromVisibWave heightAir tempDewpointWater temp
2017-Jun-02 18:48N 40°57' W 073°54'411.6
2017-Jun-02 18:29N 40°54' W 073°55'611.6
2017-Jun-02 18:01N 40°49' W 073°58'510.8
2017-Jun-02 17:31N 40°44' W 074°01'5 9.7
2017-Jun-02 17:01N 40°40' W 074°04'3 6.1
2017-Jun-02 16:30N 40°38' W 074°08'0 0.0
2017-Jun-02 15:55N 40°38' W 074°08'3 7.5
2017-Jun-02 15:31N 40°40' W 074°04'0 1.0
2017-Jun-02 15:01N 40°39' W 074°04'3 5.5
2017-Jun-02 14:31N 40°38' W 074°08'0 0.0
2017-Jun-02 13:30N 40°38' W 074°08'0 0.0
2017-Jun-02 13:01N 40°38' W 074°08'0 0.1
2017-Jun-02 12:30N 40°38' W 074°08'0 0.0
2017-Jun-02 12:00N 40°38' W 074°08'0 0.0
2017-Jun-02 11:30N 40°38' W 074°08'0 0.0
2017-Jun-02 11:00N 40°38' W 074°08'0 0.0
2017-Jun-02 10:30N 40°38' W 074°08'0 0.0
2017-Jun-02 10:00N 40°38' W 074°08'0 0.0
2017-Jun-02 09:30N 40°38' W 074°08'0 0.0
2017-Jun-02 09:00N 40°38' W 074°08'0 0.0
2017-Jun-02 08:28N 40°38' W 074°08'0 0.0
2017-Jun-02 07:24N 40°38' W 074°08'3 7.9
2017-Jun-02 07:00N 40°38' W 074°12'4 5.9
2017-Jun-02 06:23N 40°34' W 074°13'1 0.5
2017-Jun-02 05:09N 40°35' W 074°13'0 0.0
2017-Jun-02 04:59N 40°35' W 074°13'4 8.5
2017-Jun-02 04:30N 40°39' W 074°10'2 3.6
2017-Jun-02 03:58N 40°38' W 074°08'0 0.0
2017-Jun-02 03:30N 40°38' W 074°08'0 0.0
2017-Jun-02 03:00N 40°38' W 074°08'0 0.0
2017-Jun-02 02:30N 40°38' W 074°08'0 0.0
2017-Jun-02 02:00N 40°38' W 074°08'0 0.0
2017-Jun-01 23:53N 40°38' W 074°08'0 0.0
2017-Jun-01 23:26N 40°38' W 074°08'0 0.0
2017-Jun-01 22:50N 40°38' W 074°08'0 0.0
2017-Jun-01 22:31N 40°38' W 074°08'0 0.0
2017-Jun-01 21:59N 40°38' W 074°08'0 0.0
2017-Jun-01 21:28N 40°38' W 074°08'0 0.0
2017-Jun-01 20:56N 40°38' W 074°08'0 0.0
2017-Jun-01 20:19N 40°38' W 074°08'0 0.0
2017-Jun-01 19:20N 40°38' W 074°08'0 0.0
2017-Jun-01 18:56N 40°38' W 074°08'0 0.3
2017-Jun-01 18:31N 40°39' W 074°08'4 0.9
2017-Jun-01 14:32N 40°37' W 074°12'4 7.2
2017-Jun-01 14:00N 40°39' W 074°08'0 0.2
2017-Jun-01 13:30N 40°38' W 074°08'0 0.0
2017-Jun-01 12:55N 40°38' W 074°08'0 0.0
2017-Jun-01 12:27N 40°38' W 074°08'0 0.0
2017-Jun-01 11:59N 40°38' W 074°08'0 0.0
2017-Jun-01 11:25N 40°38' W 074°08'4 9.1
2017-Jun-01 11:01N 40°40' W 074°03'1 2.6
2017-Jun-01 10:31N 40°39' W 074°05'2 4.3
2017-Jun-01 09:57N 40°38' W 074°08'0 0.0
2017-Jun-01 09:19N 40°38' W 074°08'0 0.0
2017-Jun-01 09:01N 40°38' W 074°08'0 0.0
2017-Jun-01 08:31N 40°38' W 074°08'0 0.0
2017-Jun-01 07:37N 40°38' W 074°08'0 0.0
2017-Jun-01 07:30N 40°38' W 074°08'0 0.0
2017-Jun-01 07:00N 40°38' W 074°08'0 0.0
2017-Jun-01 06:30N 40°38' W 074°08'0 0.0
2017-Jun-01 06:00N 40°38' W 074°08'0 0.0
2017-Jun-01 05:30N 40°38' W 074°08'0 0.0
2017-Jun-01 04:59N 40°38' W 074°08'0 0.0
2017-Jun-01 04:13N 40°38' W 074°08'0 0.0
2017-Jun-01 03:57N 40°38' W 074°08'1 1.4
2017-Jun-01 03:31N 40°39' W 074°09'3 6.5
2017-Jun-01 03:01N 40°39' W 074°04'2 4.1
2017-Jun-01 02:30N 40°37' W 074°03'0 0.3
2017-Jun-01 02:01N 40°37' W 074°03'3 6.1
2017-Jun-01 01:31N 40°39' W 074°06'4 7.9
2017-Jun-01 01:00N 40°38' W 074°12'2 4.3
2017-Jun-01 00:29N 40°36' W 074°12'1 2.1
2017-Jun-01 00:00N 40°35' W 074°13'3 5.6
2017-May-31 23:31N 40°38' W 074°12'3 6.3
2017-May-31 23:00N 40°38' W 074°08'0 0.0
2017-May-31 22:30N 40°38' W 074°08'2 3.4
2017-May-31 22:00N 40°40' W 074°08'1 2.0
2017-May-31 21:31N 40°41' W 074°08'0 0.7
2017-May-31 20:59N 40°41' W 074°08'3 5.7
2017-May-31 20:31N 40°39' W 074°09'3 6.3
2017-May-31 20:01N 40°39' W 074°05'2 4.0
2017-May-31 19:31N 40°41' W 074°04'0 0.1
2017-May-31 19:01N 40°41' W 074°04'3 5.0
2017-May-31 18:31N 40°39' W 074°06'1 2.9
2017-May-31 18:00N 40°38' W 074°08'2 4.3
2017-May-31 17:30N 40°39' W 074°05'1 1.1
2017-May-31 17:00N 40°39' W 074°04'3 5.3
2017-May-31 16:30N 40°38' W 074°08'0 0.0
2017-May-31 15:35N 40°38' W 074°08'0 0.0
2017-May-31 15:21N 40°38' W 074°08'3 7.6
2017-May-31 15:00N 40°39' W 074°04'2 4.1
2017-May-31 14:30N 40°37' W 074°03'4 3.7
2017-May-31 13:30N 40°38' W 074°08'0 0.0
2017-May-31 13:00N 40°38' W 074°08'0 0.0
2017-May-31 12:30N 40°38' W 074°08'0 0.0
2017-May-31 12:00N 40°38' W 074°08'3 5.6
2017-May-31 11:30N 40°38' W 074°11'1 2.2
2017-May-31 11:01N 40°39' W 074°10'3 6.0
2017-May-31 10:31N 40°39' W 074°06'1 2.4
2017-May-31 10:00N 40°38' W 074°08'0 0.2
2017-May-31 09:31N 40°38' W 074°08'3 6.7
2017-May-31 09:01N 40°37' W 074°04'0 0.7
2017-May-31 08:30N 40°37' W 074°03'1 1.0
2017-May-31 08:00N 40°37' W 074°03'0 0.5
2017-May-31 07:31N 40°36' W 074°03'3 6.5
2017-May-31 07:01N 40°39' W 074°05'2 3.6
2017-May-31 06:30N 40°38' W 074°08'0 0.0
2017-May-31 06:01N 40°38' W 074°08'0 0.0
2017-May-31 05:31N 40°38' W 074°08'0 0.0
2017-May-31 05:01N 40°38' W 074°08'0 0.0
2017-May-31 04:30N 40°38' W 074°08'0 0.0
2017-May-31 04:01N 40°38' W 074°08'1 2.9
2017-May-31 03:30N 40°39' W 074°06'0 0.3
2017-May-31 03:01N 40°39' W 074°06'2 4.4
2017-May-31 02:30N 40°39' W 074°09'2 4.9
2017-May-31 02:01N 40°41' W 074°08'0 0.6
2017-May-31 01:30N 40°42' W 074°08'0 0.3
2017-May-31 01:00N 40°42' W 074°08'0 0.0
2017-May-31 00:31N 40°41' W 074°08'0 0.0
2017-May-31 00:00N 40°42' W 074°08'0 0.2
2017-May-30 23:30N 40°41' W 074°08'3 5.9
2017-May-30 23:00N 40°38' W 074°08'0 0.0
2017-May-30 22:31N 40°38' W 074°08'0 0.0
2017-May-30 22:01N 40°38' W 074°08'0 0.0
2017-May-30 21:30N 40°38' W 074°08'0 0.0
2017-May-30 21:00N 40°38' W 074°08'0 0.0
2017-May-30 20:29N 40°38' W 074°08'2 3.3
2017-May-30 20:00N 40°39' W 074°10'4 3.6
2017-May-30 18:52N 40°35' W 074°13'0 0.4
2017-May-30 18:24N 40°35' W 074°12'1 0.6
2017-May-30 16:13N 40°36' W 074°12'2 9.7
2017-May-30 16:00N 40°38' W 074°12'3 4.2
2017-May-30 15:19N 40°38' W 074°08'0 0.0
2017-May-30 15:00N 40°38' W 074°08'0 0.0
2017-May-30 14:00N 40°38' W 074°08'0 0.0
2017-May-30 13:28N 40°38' W 074°08'0 0.0
2017-May-30 12:59N 40°38' W 074°08'0 0.0
2017-May-30 12:29N 40°38' W 074°08'0 0.0
2017-May-30 12:00N 40°38' W 074°08'0 0.0
2017-May-30 11:28N 40°38' W 074°08'0 0.0
2017-May-30 11:00N 40°38' W 074°08'0 0.0
2017-May-30 10:30N 40°38' W 074°08'0 0.0
2017-May-30 10:00N 40°38' W 074°08'1 2.0
2017-May-30 09:31N 40°39' W 074°07'3 5.9
2017-May-30 09:01N 40°38' W 074°03'4 7.5
2017-May-30 08:30N 40°39' W 074°08'0 0.2
2017-May-30 07:59N 40°38' W 074°08'0 0.0
2017-May-30 07:30N 40°38' W 074°08'0 0.0
2017-May-30 07:00N 40°38' W 074°08'0 0.0
2017-May-30 06:29N 40°38' W 074°08'0 0.0
2017-May-30 06:01N 40°38' W 074°08'0 0.0
2017-May-30 05:30N 40°38' W 074°08'0 0.0
2017-May-30 05:00N 40°38' W 074°08'0 0.0
2017-May-30 04:30N 40°38' W 074°08'0 0.0
2017-May-30 04:01N 40°38' W 074°08'0 0.0
2017-May-30 03:29N 40°38' W 074°08'0 0.0
2017-May-30 03:00N 40°38' W 074°08'0 0.0
2017-May-30 02:29N 40°38' W 074°08'0 0.0
2017-May-30 02:00N 40°38' W 074°08'0 0.0
2017-May-30 01:31N 40°38' W 074°08'0 0.0
2017-May-30 01:00N 40°38' W 074°08'0 0.0
2017-May-30 00:31N 40°38' W 074°08'0 0.0
2017-May-30 00:00N 40°38' W 074°08'0 0.0
2017-May-29 23:29N 40°38' W 074°08'0 0.0
2017-May-29 23:01N 40°38' W 074°08'0 0.0
2017-May-29 22:28N 40°38' W 074°08'0 0.0
2017-May-29 22:01N 40°38' W 074°08'0 0.0
2017-May-29 21:30N 40°38' W 074°08'0 0.0
2017-May-29 21:00N 40°38' W 074°08'0 0.0
2017-May-29 20:30N 40°38' W 074°08'0 0.0
2017-May-29 20:00N 40°38' W 074°08'0 0.0
2017-May-29 19:30N 40°38' W 074°08'0 0.0
2017-May-29 19:00N 40°38' W 074°08'0 0.0
2017-May-29 18:30N 40°38' W 074°08'0 0.0
2017-May-29 18:00N 40°38' W 074°08'0 0.0
2017-May-29 17:28N 40°38' W 074°08'0 0.0
2017-May-29 17:00N 40°38' W 074°08'0 0.0
2017-May-29 16:30N 40°38' W 074°08'0 0.0
2017-May-29 16:00N 40°38' W 074°08'0 0.0
2017-May-29 15:31N 40°38' W 074°08'0 0.0
2017-May-29 15:00N 40°38' W 074°08'0 0.0
2017-May-29 14:00N 40°38' W 074°08'0 0.0
2017-May-29 13:30N 40°38' W 074°08'0 0.0
2017-May-29 13:00N 40°38' W 074°08'0 0.0
2017-May-29 12:30N 40°38' W 074°08'0 0.0
2017-May-29 12:01N 40°38' W 074°08'0 0.0
2017-May-29 11:31N 40°38' W 074°08'0 0.0
2017-May-29 11:01N 40°38' W 074°08'0 0.0
2017-May-29 10:31N 40°38' W 074°08'0 0.0
2017-May-29 10:00N 40°38' W 074°08'0 0.0
2017-May-29 09:31N 40°38' W 074°08'0 0.0
2017-May-29 09:01N 40°38' W 074°08'0 0.0
2017-May-29 08:30N 40°38' W 074°08'0 0.0
2017-May-29 07:57N 40°38' W 074°08'0 0.0
2017-May-29 07:30N 40°38' W 074°08'0 0.0
2017-May-29 07:01N 40°38' W 074°08'0 0.0
2017-May-29 06:31N 40°38' W 074°08'0 0.0
2017-May-29 06:00N 40°38' W 074°08'0 0.0
2017-May-29 05:30N 40°38' W 074°08'0 0.0
2017-May-29 05:00N 40°38' W 074°08'0 0.0
2017-May-29 04:30N 40°38' W 074°08'0 0.0
2017-May-29 03:59N 40°38' W 074°08'0 0.0
2017-May-29 03:30N 40°38' W 074°08'0 0.0
2017-May-29 03:00N 40°38' W 074°08'0 0.0
2017-May-29 00:43N 40°38' W 074°08'0 0.0
2017-May-29 00:26N 40°38' W 074°08'0 0.0
2017-May-28 23:28N 40°38' W 074°08'0 0.0
2017-May-28 22:53N 40°38' W 074°08'0 0.0
2017-May-28 22:30N 40°38' W 074°08'0 0.0
2017-May-28 21:47N 40°38' W 074°08'0 0.0
2017-May-28 21:29N 40°38' W 074°08'0 0.0
2017-May-28 19:50N 40°38' W 074°08'0 0.0
2017-May-28 19:30N 40°38' W 074°08'0 0.0
2017-May-28 18:58N 40°38' W 074°08'0 0.0
2017-May-28 18:30N 40°38' W 074°08'0 0.0
2017-May-28 18:00N 40°38' W 074°08'0 0.0
2017-May-28 17:28N 40°38' W 074°08'0 0.0
2017-May-28 16:59N 40°38' W 074°08'0 0.0
2017-May-28 16:29N 40°38' W 074°08'0 0.0
2017-May-28 15:59N 40°38' W 074°08'0 0.0
2017-May-28 15:30N 40°38' W 074°08'1 1.4
2017-May-28 15:00N 40°39' W 074°07'1 0.7
2017-May-28 14:00N 40°38' W 074°08'0 0.0
2017-May-28 13:30N 40°38' W 074°08'0 0.0
2017-May-28 13:01N 40°38' W 074°08'0 0.0
2017-May-28 12:30N 40°38' W 074°08'4 7.1
2017-May-28 11:59N 40°37' W 074°12'1 0.3
2017-May-28 09:13N 40°36' W 074°12'210.8
2017-May-28 09:00N 40°39' W 074°11'3 5.4
2017-May-28 08:30N 40°38' W 074°08'0 0.0
2017-May-28 08:00N 40°38' W 074°08'0 0.0
2017-May-28 07:31N 40°38' W 074°08'0 0.0
2017-May-28 07:01N 40°38' W 074°08'0 0.0
2017-May-28 06:30N 40°38' W 074°08'0 0.0
2017-May-28 05:57N 40°38' W 074°08'0 0.0
2017-May-28 05:31N 40°38' W 074°08'0 0.0
2017-May-28 05:00N 40°38' W 074°08'0 0.0
2017-May-28 04:30N 40°38' W 074°08'0 0.0
2017-May-28 04:01N 40°38' W 074°08'0 0.0
2017-May-28 03:31N 40°38' W 074°08'0 0.0
2017-May-28 03:00N 40°38' W 074°08'0 0.0
2017-May-28 02:31N 40°38' W 074°08'0 0.0
2017-May-28 02:00N 40°38' W 074°08'0 0.0
2017-May-28 01:30N 40°38' W 074°08'0 0.0
2017-May-28 01:00N 40°38' W 074°08'0 0.0
2017-May-28 00:30N 40°38' W 074°08'0 0.0
2017-May-27 23:59N 40°38' W 074°08'0 0.0
2017-May-27 23:31N 40°38' W 074°08'0 0.0
2017-May-27 23:01N 40°38' W 074°08'0 0.0
2017-May-27 22:31N 40°38' W 074°08'0 0.0
2017-May-27 22:01N 40°38' W 074°08'0 0.0
2017-May-27 21:31N 40°38' W 074°08'0 0.0
2017-May-27 21:01N 40°38' W 074°08'0 0.0
2017-May-27 20:30N 40°38' W 074°08'0 0.0
2017-May-27 20:00N 40°38' W 074°08'0 0.0
2017-May-27 19:30N 40°38' W 074°08'0 0.0
2017-May-27 19:01N 40°38' W 074°08'0 0.0
2017-May-27 18:30N 40°38' W 074°08'0 0.0
2017-May-27 18:01N 40°38' W 074°08'0 0.0
2017-May-27 17:31N 40°38' W 074°08'0 0.0
2017-May-27 17:00N 40°38' W 074°08'0 0.0
2017-May-27 16:31N 40°38' W 074°08'0 0.0
2017-May-27 16:00N 40°38' W 074°08'0 0.0
2017-May-27 15:28N 40°38' W 074°08'0 0.0
2017-May-27 15:00N 40°38' W 074°08'0 0.0
2017-May-27 14:31N 40°38' W 074°08'0 0.0
2017-May-27 13:30N 40°38' W 074°08'0 0.0
2017-May-27 13:00N 40°38' W 074°08'0 0.0
2017-May-27 12:30N 40°38' W 074°08'1 2.7
2017-May-27 12:01N 40°39' W 074°06'0 0.9
2017-May-27 11:31N 40°39' W 074°05'2 4.2
2017-May-27 11:00N 40°39' W 074°08'4 0.7
2017-May-27 05:30N 40°37' W 074°12'4 8.1
2017-May-27 05:00N 40°39' W 074°08'0 0.1
2017-May-27 04:13N 40°38' W 074°08'0 0.0
2017-May-27 04:00N 40°38' W 074°08'0 0.0
2017-May-27 03:13N 40°38' W 074°08'0 0.0
2017-May-27 03:00N 40°38' W 074°08'0 0.0
2017-May-27 02:29N 40°38' W 074°08'0 0.0
2017-May-27 01:53N 40°38' W 074°08'0 0.0
2017-May-27 01:30N 40°38' W 074°08'0 0.0
2017-May-26 22:09N 40°38' W 074°08'0 0.0
2017-May-26 21:09N 40°38' W 074°08'0 0.0
2017-May-26 20:54N 40°38' W 074°08'0 0.0
2017-May-26 19:31N 40°38' W 074°08'0 0.0
2017-May-26 19:07N 40°38' W 074°08'0 0.1
2017-May-26 19:00N 40°38' W 074°08'2 4.6
2017-May-26 18:30N 40°39' W 074°11'2 0.4
2017-May-26 12:04N 40°37' W 074°12'0 7.8
2017-May-26 12:01N 40°37' W 074°12'3 6.5
2017-May-26 11:30N 40°39' W 074°08'1 1.0
2017-May-26 11:01N 40°38' W 074°08'0 0.0
2017-May-26 10:31N 40°38' W 074°08'0 0.0
2017-May-26 10:01N 40°38' W 074°08'0 0.0
2017-May-26 09:31N 40°38' W 074°08'0 0.0
2017-May-26 09:00N 40°38' W 074°08'0 0.0
2017-May-26 08:31N 40°38' W 074°08'0 0.0
2017-May-26 08:00N 40°38' W 074°08'0 0.0
2017-May-26 07:31N 40°38' W 074°08'0 0.0
2017-May-26 07:01N 40°38' W 074°08'0 0.0
2017-May-26 06:31N 40°38' W 074°08'0 0.0
2017-May-26 06:01N 40°38' W 074°08'0 0.0
2017-May-26 05:30N 40°38' W 074°08'0 0.0
2017-May-26 05:00N 40°38' W 074°08'0 0.0
2017-May-26 04:31N 40°38' W 074°08'0 0.0
2017-May-26 04:01N 40°38' W 074°08'0 0.0
2017-May-26 03:30N 40°38' W 074°08'0 0.0
2017-May-26 03:01N 40°38' W 074°08'0 0.0
2017-May-26 02:31N 40°38' W 074°08'0 0.0
2017-May-26 02:01N 40°38' W 074°08'0 0.0
2017-May-26 01:31N 40°38' W 074°08'0 0.0
2017-May-26 01:01N 40°38' W 074°08'0 0.0
2017-May-26 00:31N 40°38' W 074°08'0 0.0
2017-May-26 00:00N 40°38' W 074°08'0 0.0
2017-May-25 23:31N 40°38' W 074°08'0 0.0
2017-May-25 23:01N 40°38' W 074°08'0 0.0
2017-May-25 22:31N 40°38' W 074°08'0 0.0
2017-May-25 22:01N 40°38' W 074°08'0 0.0
2017-May-25 21:31N 40°38' W 074°08'0 0.0
2017-May-25 21:01N 40°38' W 074°08'0 0.0
2017-May-25 20:31N 40°38' W 074°08'0 0.0
2017-May-25 20:01N 40°38' W 074°08'0 0.0
2017-May-25 19:30N 40°38' W 074°08'0 0.0
2017-May-25 19:00N 40°38' W 074°08'0 0.0
2017-May-25 18:30N 40°38' W 074°08'0 0.0
2017-May-25 18:00N 40°38' W 074°08'0 0.0
2017-May-25 17:30N 40°38' W 074°08'0 0.0
2017-May-25 17:00N 40°38' W 074°08'0 0.0
2017-May-25 16:30N 40°38' W 074°08'0 0.0
2017-May-25 15:51N 40°38' W 074°08'0 0.0
2017-May-25 15:19N 40°38' W 074°08'0 0.0
2017-May-25 15:00N 40°38' W 074°08'0 0.0
2017-May-25 13:46N 40°38' W 074°08'0 1.7
2017-May-25 13:30N 40°39' W 074°07'0 0.1
2017-May-25 13:01N 40°39' W 074°07'0 0.5
2017-May-25 12:31N 40°39' W 074°07'0 0.4
2017-May-25 12:01N 40°39' W 074°07'0 0.7
2017-May-25 11:30N 40°39' W 074°06'1 2.5
2017-May-25 11:00N 40°38' W 074°08'0 0.0
2017-May-25 10:30N 40°38' W 074°08'0 0.0
2017-May-25 09:53N 40°38' W 074°08'0 0.0
2017-May-25 09:29N 40°38' W 074°08'0 0.0
2017-May-25 09:00N 40°38' W 074°08'0 0.0
2017-May-25 08:30N 40°38' W 074°08'0 0.0
2017-May-25 08:00N 40°38' W 074°08'0 0.0
2017-May-25 07:16N 40°38' W 074°08'0 0.0
2017-May-25 06:56N 40°38' W 074°08'0 0.0
2017-May-25 05:55N 40°38' W 074°08'0 0.1
2017-May-25 05:30N 40°38' W 074°08'4 8.9
2017-May-25 05:01N 40°40' W 074°03'2 3.5
2017-May-25 04:31N 40°41' W 074°01'0 0.3
2017-May-25 04:01N 40°41' W 074°01'0 0.0
2017-May-25 03:31N 40°41' W 074°01'0 0.0
2017-May-25 03:01N 40°41' W 074°01'5 9.2
2017-May-25 02:31N 40°39' W 074°06'1 2.4
2017-May-25 01:56N 40°38' W 074°08'0 0.0
2017-May-25 01:29N 40°38' W 074°08'0 0.0
2017-May-25 00:59N 40°38' W 074°08'0 0.0
2017-May-25 00:26N 40°38' W 074°08'0 0.0
2017-May-24 23:14N 40°38' W 074°08'0 0.0
2017-May-24 22:50N 40°38' W 074°08'0 0.0
2017-May-24 22:26N 40°38' W 074°08'0 0.0
2017-May-24 21:32N 40°38' W 074°08'0 0.0
2017-May-24 21:29N 40°38' W 074°08'0 0.0
2017-May-24 20:53N 40°38' W 074°08'0 0.0
2017-May-24 20:29N 40°38' W 074°08'0 0.0
2017-May-24 19:53N 40°38' W 074°08'0 0.0
2017-May-24 18:59N 40°38' W 074°08'0 0.0
2017-May-24 18:23N 40°38' W 074°08'0 0.0
2017-May-24 17:53N 40°38' W 074°08'0 0.0
2017-May-24 17:29N 40°38' W 074°08'0 0.0
2017-May-24 16:59N 40°38' W 074°08'0 0.0
2017-May-24 16:29N 40°38' W 074°08'0 0.0
2017-May-24 15:59N 40°38' W 074°08'0 0.0
2017-May-24 10:53N 40°38' W 074°08'0 0.0
2017-May-24 10:29N 40°38' W 074°08'0 0.0
2017-May-24 09:46N 40°38' W 074°08'310.1
2017-May-24 09:30N 40°39' W 074°11'0 0.1
2017-May-24 08:48N 40°39' W 074°11'2 6.1
2017-May-24 08:30N 40°39' W 074°09'1 0.6
2017-May-24 07:20N 40°38' W 074°08'0 0.0
2017-May-24 06:44N 40°38' W 074°08'0 0.0
2017-May-24 06:26N 40°38' W 074°08'0 0.0
2017-May-24 05:35N 40°38' W 074°08'0 0.0
2017-May-24 05:29N 40°38' W 074°08'0 0.0
2017-May-24 01:02N 40°38' W 074°08'0 0.0
2017-May-24 00:50N 40°38' W 074°08'1 2.1
2017-May-24 00:31N 40°39' W 074°07'1 1.3
2017-May-24 00:00N 40°38' W 074°08'0 0.0
2017-May-23 23:30N 40°38' W 074°08'0 0.0
2017-May-23 23:00N 40°38' W 074°08'0 0.0
2017-May-23 22:30N 40°38' W 074°08'0 0.0
2017-May-23 22:00N 40°38' W 074°08'0 0.0
2017-May-23 21:27N 40°38' W 074°08'0 0.0
2017-May-23 20:57N 40°38' W 074°08'0 0.0
2017-May-23 20:30N 40°38' W 074°08'0 0.0
2017-May-23 20:00N 40°38' W 074°08'0 0.0
2017-May-23 19:27N 40°38' W 074°08'0 0.0
2017-May-23 18:57N 40°38' W 074°08'  

Dump ship's entire track history